sensor_id;sensor_type;location;lat;lon;timestamp;pressure;altitude;pressure_sealevel;temperature;humidity
818;BME280;391;51.052;6.954;2023-02-28T00:01:30;102265.47;;;4.16;53.73
818;BME280;391;51.052;6.954;2023-02-28T00:03:34;102263.78;;;4.17;54.12
818;BME280;391;51.052;6.954;2023-02-28T00:05:38;102261.72;;;4.13;53.50
818;BME280;391;51.052;6.954;2023-02-28T00:07:42;102264.06;;;4.10;53.11
818;BME280;391;51.052;6.954;2023-02-28T00:09:47;102264.06;;;4.10;53.65
818;BME280;391;51.052;6.954;2023-02-28T00:11:50;102262.25;;;4.09;53.41
818;BME280;391;51.052;6.954;2023-02-28T00:13:54;102260.72;;;4.11;54.06
818;BME280;391;51.052;6.954;2023-02-28T00:16:01;102259.03;;;4.11;53.39
818;BME280;391;51.052;6.954;2023-02-28T00:18:05;102233.34;;;3.91;53.89
818;BME280;391;51.052;6.954;2023-02-28T00:20:10;102197.47;;;3.72;54.10
818;BME280;391;51.052;6.954;2023-02-28T00:22:14;102262.16;;;4.07;53.44
818;BME280;391;51.052;6.954;2023-02-28T00:24:17;102259.09;;;4.01;53.34
818;BME280;391;51.052;6.954;2023-02-28T00:26:22;102256.28;;;3.98;53.71
818;BME280;391;51.052;6.954;2023-02-28T00:28:26;102260.94;;;3.92;54.52
818;BME280;391;51.052;6.954;2023-02-28T00:30:29;102258.38;;;3.92;54.41
818;BME280;391;51.052;6.954;2023-02-28T00:32:33;102258.22;;;3.91;54.28
818;BME280;391;51.052;6.954;2023-02-28T00:34:36;102257.56;;;3.93;54.52
818;BME280;391;51.052;6.954;2023-02-28T00:36:40;102261.28;;;3.97;54.99
818;BME280;391;51.052;6.954;2023-02-28T00:38:48;102259.84;;;4.00;54.71
818;BME280;391;51.052;6.954;2023-02-28T00:40:51;102262.44;;;4.00;54.00
818;BME280;391;51.052;6.954;2023-02-28T00:42:56;102261.19;;;3.95;54.13
818;BME280;391;51.052;6.954;2023-02-28T00:44:59;102251.16;;;3.88;54.36
818;BME280;391;51.052;6.954;2023-02-28T00:47:03;102259.38;;;3.94;54.59
818;BME280;391;51.052;6.954;2023-02-28T00:49:07;102258.63;;;3.95;54.29
818;BME280;391;51.052;6.954;2023-02-28T00:51:10;102262.19;;;3.97;55.01
818;BME280;391;51.052;6.954;2023-02-28T00:53:14;102265.44;;;3.95;54.05
818;BME280;391;51.052;6.954;2023-02-28T00:55:17;102267.78;;;3.92;54.26
818;BME280;391;51.052;6.954;2023-02-28T00:57:23;102261.81;;;3.93;54.43
818;BME280;391;51.052;6.954;2023-02-28T00:59:27;102234.81;;;3.78;54.24
818;BME280;391;51.052;6.954;2023-02-28T01:01:31;102255.53;;;3.89;55.03
818;BME280;391;51.052;6.954;2023-02-28T01:03:34;102256.41;;;3.90;54.60
818;BME280;391;51.052;6.954;2023-02-28T01:05:38;102141.25;;;3.15;55.18
818;BME280;391;51.052;6.954;2023-02-28T01:07:43;102267.06;;;3.83;55.04
818;BME280;391;51.052;6.954;2023-02-28T01:09:46;102262.78;;;3.83;55.03
818;BME280;391;51.052;6.954;2023-02-28T01:11:51;102264.81;;;3.87;55.22
818;BME280;391;51.052;6.954;2023-02-28T01:13:54;102258.41;;;3.82;54.91
818;BME280;391;51.052;6.954;2023-02-28T01:15:59;102263.69;;;3.84;54.81
818;BME280;391;51.052;6.954;2023-02-28T01:18:02;102253.34;;;3.84;54.89
818;BME280;391;51.052;6.954;2023-02-28T01:20:07;102255.84;;;3.82;54.96
818;BME280;391;51.052;6.954;2023-02-28T01:22:13;102258.41;;;3.82;54.84
818;BME280;391;51.052;6.954;2023-02-28T01:24:17;102262.66;;;3.82;54.83
818;BME280;391;51.052;6.954;2023-02-28T01:26:22;102263.22;;;3.67;55.62
818;BME280;391;51.052;6.954;2023-02-28T01:28:25;102264.06;;;3.56;55.65
818;BME280;391;51.052;6.954;2023-02-28T01:30:29;102260.84;;;3.49;55.90
818;BME280;391;51.052;6.954;2023-02-28T01:32:33;102268.59;;;3.39;55.43
818;BME280;391;51.052;6.954;2023-02-28T01:34:38;102264.84;;;3.35;56.29
818;BME280;391;51.052;6.954;2023-02-28T01:36:41;102259.19;;;3.39;55.36
818;BME280;391;51.052;6.954;2023-02-28T01:38:46;102259.56;;;3.44;55.57
818;BME280;391;51.052;6.954;2023-02-28T01:40:50;102251.19;;;3.46;55.21
818;BME280;391;51.052;6.954;2023-02-28T01:42:53;102257.34;;;3.48;56.40
818;BME280;391;51.052;6.954;2023-02-28T01:45:03;102260.06;;;3.50;56.30
818;BME280;391;51.052;6.954;2023-02-28T01:47:07;102263.91;;;3.55;55.93
818;BME280;391;51.052;6.954;2023-02-28T01:49:14;102255.28;;;3.54;55.68
818;BME280;391;51.052;6.954;2023-02-28T01:51:21;102255.28;;;3.54;55.66
818;BME280;391;51.052;6.954;2023-02-28T01:53:34;102251.81;;;3.54;55.22
818;BME280;391;51.052;6.954;2023-02-28T01:55:41;102250.63;;;3.60;55.46
818;BME280;391;51.052;6.954;2023-02-28T01:57:50;102194.91;;;3.31;54.98
818;BME280;391;51.052;6.954;2023-02-28T01:59:58;102244.56;;;3.60;55.44
818;BME280;391;51.052;6.954;2023-02-28T02:02:03;102228.09;;;3.48;55.41
818;BME280;391;51.052;6.954;2023-02-28T02:04:07;102242.09;;;3.61;55.08
818;BME280;391;51.052;6.954;2023-02-28T02:06:11;102241.19;;;3.61;54.81
818;BME280;391;51.052;6.954;2023-02-28T02:08:18;102246.91;;;3.57;55.60
818;BME280;391;51.052;6.954;2023-02-28T02:10:27;102217.66;;;3.46;55.25
818;BME280;391;51.052;6.954;2023-02-28T02:12:42;102235.78;;;3.58;55.77
818;BME280;391;51.052;6.954;2023-02-28T02:15:00;102232.63;;;3.50;55.00
818;BME280;391;51.052;6.954;2023-02-28T02:17:18;102235.03;;;3.59;55.56
818;BME280;391;51.052;6.954;2023-02-28T02:19:51;102221.13;;;3.57;54.87
818;BME280;391;51.052;6.954;2023-02-28T02:22:20;102233.59;;;3.62;54.78
818;BME280;391;51.052;6.954;2023-02-28T02:24:37;102224.84;;;3.60;54.95
818;BME280;391;51.052;6.954;2023-02-28T02:27:01;102227.44;;;3.60;55.30
818;BME280;391;51.052;6.954;2023-02-28T02:34:32;102228.06;;;3.58;55.12
818;BME280;391;51.052;6.954;2023-02-28T02:36:41;102219.84;;;3.52;54.27
818;BME280;391;51.052;6.954;2023-02-28T02:38:50;102222.41;;;3.52;54.72
818;BME280;391;51.052;6.954;2023-02-28T02:41:04;102217.53;;;3.45;55.00
818;BME280;391;51.052;6.954;2023-02-28T02:43:15;102225.50;;;3.48;55.33
818;BME280;391;51.052;6.954;2023-02-28T02:45:24;102222.31;;;3.50;55.17
818;BME280;391;51.052;6.954;2023-02-28T02:47:31;102216.00;;;3.47;54.73
818;BME280;391;51.052;6.954;2023-02-28T02:49:42;102003.50;;;2.26;54.20
818;BME280;391;51.052;6.954;2023-02-28T02:51:47;102218.56;;;3.47;54.79
818;BME280;391;51.052;6.954;2023-02-28T02:53:55;102220.78;;;3.42;55.11
818;BME280;391;51.052;6.954;2023-02-28T02:56:01;102223.00;;;3.38;55.20
818;BME280;391;51.052;6.954;2023-02-28T02:58:09;102175.41;;;3.12;55.61
818;BME280;391;51.052;6.954;2023-02-28T03:00:16;102215.63;;;3.32;55.00
818;BME280;391;51.052;6.954;2023-02-28T03:02:22;102213.22;;;3.34;55.16
818;BME280;391;51.052;6.954;2023-02-28T03:04:31;102222.84;;;3.36;54.76
818;BME280;391;51.052;6.954;2023-02-28T03:06:37;102213.31;;;3.35;55.13
818;BME280;391;51.052;6.954;2023-02-28T03:08:40;102213.22;;;3.34;54.72
818;BME280;391;51.052;6.954;2023-02-28T03:10:45;102218.75;;;3.38;55.17
818;BME280;391;51.052;6.954;2023-02-28T03:12:56;102220.03;;;3.33;55.81
818;BME280;391;51.052;6.954;2023-02-28T03:15:08;102216.31;;;3.30;55.21
818;BME280;391;51.052;6.954;2023-02-28T03:17:32;102212.97;;;3.31;55.35
818;BME280;391;51.052;6.954;2023-02-28T03:19:48;102204.22;;;3.29;55.44
818;BME280;391;51.052;6.954;2023-02-28T03:22:08;102205.66;;;3.15;55.76
818;BME280;391;51.052;6.954;2023-02-28T03:24:18;102210.56;;;3.12;56.17
818;BME280;391;51.052;6.954;2023-02-28T03:26:26;102215.31;;;3.07;56.44
818;BME280;391;51.052;6.954;2023-02-28T03:28:33;102215.84;;;3.03;56.08
818;BME280;391;51.052;6.954;2023-02-28T03:30:45;102208.00;;;3.02;55.97
818;BME280;391;51.052;6.954;2023-02-28T03:32:56;102207.75;;;2.99;56.34
818;BME280;391;51.052;6.954;2023-02-28T03:35:07;102206.09;;;2.99;56.83
818;BME280;391;51.052;6.954;2023-02-28T03:37:16;102217.16;;;2.98;56.89
818;BME280;391;51.052;6.954;2023-02-28T03:39:25;102210.44;;;3.00;56.63
818;BME280;391;51.052;6.954;2023-02-28T03:41:35;102213.00;;;3.00;56.61
818;BME280;391;51.052;6.954;2023-02-28T03:43:45;102209.44;;;2.98;56.59
818;BME280;391;51.052;6.954;2023-02-28T03:45:54;102213.66;;;2.98;57.34
818;BME280;391;51.052;6.954;2023-02-28T03:48:01;102210.19;;;2.97;56.71
818;BME280;391;51.052;6.954;2023-02-28T03:50:08;102209.56;;;2.90;56.83
818;BME280;391;51.052;6.954;2023-02-28T03:52:17;102209.44;;;2.88;57.54
818;BME280;391;51.052;6.954;2023-02-28T03:54:24;102210.84;;;2.85;57.25
818;BME280;391;51.052;6.954;2023-02-28T03:56:32;102216.41;;;2.79;57.50
818;BME280;391;51.052;6.954;2023-02-28T03:58:41;102218.31;;;2.82;57.44
818;BME280;391;51.052;6.954;2023-02-28T04:00:50;102212.81;;;2.77;57.60
818;BME280;391;51.052;6.954;2023-02-28T04:02:56;102214.47;;;2.77;58.42
818;BME280;391;51.052;6.954;2023-02-28T04:04:59;102218.72;;;2.76;58.04
818;BME280;391;51.052;6.954;2023-02-28T04:07:07;102218.22;;;2.70;58.11
818;BME280;391;51.052;6.954;2023-02-28T04:09:14;102222.84;;;2.64;57.76
818;BME280;391;51.052;6.954;2023-02-28T04:11:21;102215.63;;;2.60;57.74
818;BME280;391;51.052;6.954;2023-02-28T04:13:25;102217.19;;;2.58;57.95
818;BME280;391;51.052;6.954;2023-02-28T04:15:33;102203.81;;;2.42;57.83
818;BME280;391;51.052;6.954;2023-02-28T04:17:39;102222.09;;;2.55;58.52
818;BME280;391;51.052;6.954;2023-02-28T04:19:48;102223.25;;;2.58;58.01
818;BME280;391;51.052;6.954;2023-02-28T04:21:52;102226.19;;;2.53;58.02
818;BME280;391;51.052;6.954;2023-02-28T04:23:56;102222.59;;;2.51;58.42
818;BME280;391;51.052;6.954;2023-02-28T04:26:04;102228.00;;;2.54;58.26
818;BME280;391;51.052;6.954;2023-02-28T04:28:08;102221.53;;;2.59;58.24
818;BME280;391;51.052;6.954;2023-02-28T04:30:12;102227.75;;;2.61;58.22
818;BME280;391;51.052;6.954;2023-02-28T04:32:15;102232.63;;;2.58;58.09
818;BME280;391;51.052;6.954;2023-02-28T04:34:19;102220.53;;;2.57;58.22
818;BME280;391;51.052;6.954;2023-02-28T04:36:23;102233.53;;;2.58;58.19
818;BME280;391;51.052;6.954;2023-02-28T04:38:26;102232.00;;;2.60;57.96
818;BME280;391;51.052;6.954;2023-02-28T04:40:30;102237.13;;;2.60;58.33
818;BME280;391;51.052;6.954;2023-02-28T04:42:34;102236.88;;;2.57;58.11
818;BME280;391;51.052;6.954;2023-02-28T04:44:38;102232.38;;;2.55;57.81
818;BME280;391;51.052;6.954;2023-02-28T04:46:42;102226.19;;;2.53;57.92
818;BME280;391;51.052;6.954;2023-02-28T04:48:45;102240.06;;;2.65;58.29
818;BME280;391;51.052;6.954;2023-02-28T04:50:48;102233.91;;;2.63;57.78
818;BME280;391;51.052;6.954;2023-02-28T04:52:52;102239.22;;;2.64;58.03
818;BME280;391;51.052;6.954;2023-02-28T04:54:56;102235.72;;;2.64;57.19
818;BME280;391;51.052;6.954;2023-02-28T04:56:59;102242.28;;;2.60;57.14
818;BME280;391;51.052;6.954;2023-02-28T04:59:05;102212.69;;;2.45;57.24
818;BME280;391;51.052;6.954;2023-02-28T05:01:17;102244.09;;;2.61;56.71
818;BME280;391;51.052;6.954;2023-02-28T05:03:21;102235.97;;;2.57;57.08
818;BME280;391;51.052;6.954;2023-02-28T05:05:24;102237.53;;;2.55;56.55
818;BME280;391;51.052;6.954;2023-02-28T05:07:28;102245.88;;;2.52;56.79
818;BME280;391;51.052;6.954;2023-02-28T05:09:31;102245.75;;;2.51;56.38
818;BME280;391;51.052;6.954;2023-02-28T05:11:35;102234.53;;;2.40;56.48
818;BME280;391;51.052;6.954;2023-02-28T05:13:40;102217.81;;;2.25;56.75
818;BME280;391;51.052;6.954;2023-02-28T05:15:45;102241.25;;;2.48;56.53
818;BME280;391;51.052;6.954;2023-02-28T05:17:48;102245.75;;;2.51;56.28
818;BME280;391;51.052;6.954;2023-02-28T05:19:52;102244.19;;;2.53;56.20
818;BME280;391;51.052;6.954;2023-02-28T05:22:02;102251.91;;;2.43;56.29
818;BME280;391;51.052;6.954;2023-02-28T05:24:08;102249.34;;;2.33;56.35
818;BME280;391;51.052;6.954;2023-02-28T05:26:12;102246.63;;;2.31;56.39
818;BME280;391;51.052;6.954;2023-02-28T05:28:15;102243.16;;;2.31;56.53
818;BME280;391;51.052;6.954;2023-02-28T05:30:19;102245.22;;;2.35;56.40
818;BME280;391;51.052;6.954;2023-02-28T05:32:23;102246.13;;;2.35;56.04
818;BME280;391;51.052;6.954;2023-02-28T05:34:27;102255.09;;;2.30;56.57
818;BME280;391;51.052;6.954;2023-02-28T05:36:30;102246.63;;;2.31;56.47
818;BME280;391;51.052;6.954;2023-02-28T05:38:34;102249.31;;;2.23;56.26
818;BME280;391;51.052;6.954;2023-02-28T05:40:40;102252.78;;;2.13;56.45
818;BME280;391;51.052;6.954;2023-02-28T05:42:43;102259.09;;;2.17;56.57
818;BME280;391;51.052;6.954;2023-02-28T05:44:47;102255.44;;;2.04;56.36
818;BME280;391;51.052;6.954;2023-02-28T05:46:50;102251.16;;;1.95;56.79
818;BME280;391;51.052;6.954;2023-02-28T05:48:55;102256.28;;;1.85;56.78
818;BME280;391;51.052;6.954;2023-02-28T05:51:00;102255.47;;;1.76;56.58
818;BME280;391;51.052;6.954;2023-02-28T05:53:03;102160.38;;;1.18;56.91
818;BME280;391;51.052;6.954;2023-02-28T05:55:08;102258.13;;;1.67;57.00
818;BME280;391;51.052;6.954;2023-02-28T05:57:11;102251.31;;;1.68;57.27
818;BME280;391;51.052;6.954;2023-02-28T05:59:25;102251.88;;;1.74;57.21
818;BME280;391;51.052;6.954;2023-02-28T06:01:33;102253.75;;;1.66;57.02
818;BME280;391;51.052;6.954;2023-02-28T06:03:37;102255.72;;;1.69;57.32
818;BME280;391;51.052;6.954;2023-02-28T06:05:42;102248.66;;;1.76;57.29
818;BME280;391;51.052;6.954;2023-02-28T06:07:46;102253.84;;;1.86;56.70
818;BME280;391;51.052;6.954;2023-02-28T06:09:49;102255.53;;;1.96;56.75
818;BME280;391;51.052;6.954;2023-02-28T06:11:52;102258.00;;;2.04;56.63
818;BME280;391;51.052;6.954;2023-02-28T06:13:57;102251.09;;;2.13;56.58
818;BME280;391;51.052;6.954;2023-02-28T06:16:01;102255.72;;;2.18;56.40
818;BME280;391;51.052;6.954;2023-02-28T06:18:05;102256.00;;;2.21;55.92
818;BME280;391;51.052;6.954;2023-02-28T06:20:09;102265.41;;;2.20;55.50
818;BME280;391;51.052;6.954;2023-02-28T06:22:16;102267.34;;;2.23;55.59
818;BME280;391;51.052;6.954;2023-02-28T06:24:20;102275.81;;;2.22;55.38
818;BME280;391;51.052;6.954;2023-02-28T06:26:23;102269.66;;;2.20;55.09
818;BME280;391;51.052;6.954;2023-02-28T06:28:27;102275.41;;;2.17;55.17
818;BME280;391;51.052;6.954;2023-02-28T06:30:30;102277.63;;;2.23;55.28
818;BME280;391;51.052;6.954;2023-02-28T06:32:36;102278.00;;;2.27;54.89
818;BME280;391;51.052;6.954;2023-02-28T06:34:39;102234.47;;;2.00;54.47
818;BME280;391;51.052;6.954;2023-02-28T06:36:43;102278.91;;;2.28;54.64
818;BME280;391;51.052;6.954;2023-02-28T06:38:47;102283.28;;;2.29;55.04
818;BME280;391;51.052;6.954;2023-02-28T06:40:58;102294.34;;;2.28;54.71
818;BME280;391;51.052;6.954;2023-02-28T06:43:01;102284.06;;;2.28;54.42
818;BME280;391;51.052;6.954;2023-02-28T06:45:06;102292.53;;;2.27;54.39
818;BME280;391;51.052;6.954;2023-02-28T06:47:13;102299.50;;;2.28;54.19
818;BME280;391;51.052;6.954;2023-02-28T06:49:17;102297.56;;;2.25;54.24
818;BME280;391;51.052;6.954;2023-02-28T06:51:21;102303.38;;;2.33;54.15
818;BME280;391;51.052;6.954;2023-02-28T06:53:26;102298.34;;;2.34;53.89
818;BME280;391;51.052;6.954;2023-02-28T06:55:31;102309.28;;;2.32;53.56
818;BME280;391;51.052;6.954;2023-02-28T06:57:35;102308.38;;;2.31;53.66
818;BME280;391;51.052;6.954;2023-02-28T06:59:38;102314.19;;;2.29;53.53
818;BME280;391;51.052;6.954;2023-02-28T07:01:42;102311.59;;;2.29;53.43
818;BME280;391;51.052;6.954;2023-02-28T07:03:46;102309.03;;;2.29;53.05
818;BME280;391;51.052;6.954;2023-02-28T07:05:54;102262.88;;;2.01;53.48
818;BME280;391;51.052;6.954;2023-02-28T07:07:58;102315.69;;;2.27;53.00
818;BME280;391;51.052;6.954;2023-02-28T07:10:02;102310.19;;;2.32;52.78
818;BME280;391;51.052;6.954;2023-02-28T07:12:07;102313.78;;;2.34;52.96
818;BME280;391;51.052;6.954;2023-02-28T07:14:10;102313.16;;;2.37;52.52
818;BME280;391;51.052;6.954;2023-02-28T07:16:13;102309.97;;;2.39;52.67
818;BME280;391;51.052;6.954;2023-02-28T07:18:17;102304.63;;;2.28;52.84
818;BME280;391;51.052;6.954;2023-02-28T07:20:21;102325.28;;;2.48;52.26
818;BME280;391;51.052;6.954;2023-02-28T07:22:25;102321.16;;;2.50;52.65
818;BME280;391;51.052;6.954;2023-02-28T07:24:29;102329.69;;;2.49;52.23
818;BME280;391;51.052;6.954;2023-02-28T07:26:32;102323.34;;;2.45;52.34
818;BME280;391;51.052;6.954;2023-02-28T07:28:38;102323.34;;;2.45;51.60
818;BME280;391;51.052;6.954;2023-02-28T07:30:42;102310.09;;;3.42;76.56
818;BME280;391;51.052;6.954;2023-02-28T07:32:45;102318.44;;;4.88;77.38
818;BME280;391;51.052;6.954;2023-02-28T07:34:49;102319.13;;;6.00;72.19
818;BME280;391;51.052;6.954;2023-02-28T07:36:53;102321.03;;;6.62;66.86
818;BME280;391;51.052;6.954;2023-02-28T07:38:58;102325.00;;;6.09;62.38
818;BME280;391;51.052;6.954;2023-02-28T07:41:02;102334.41;;;5.39;60.19
818;BME280;391;51.052;6.954;2023-02-28T07:43:07;102327.03;;;4.77;57.89
818;BME280;391;51.052;6.954;2023-02-28T07:45:11;102335.59;;;4.33;56.45
818;BME280;391;51.052;6.954;2023-02-28T07:47:16;102325.63;;;4.05;55.18
818;BME280;391;51.052;6.954;2023-02-28T07:49:20;102331.31;;;3.80;53.59
818;BME280;391;51.052;6.954;2023-02-28T07:51:23;102328.34;;;3.65;53.26
818;BME280;391;51.052;6.954;2023-02-28T07:53:27;102324.78;;;3.43;52.33
818;BME280;391;51.052;6.954;2023-02-28T07:55:31;102338.44;;;3.42;51.25
818;BME280;391;51.052;6.954;2023-02-28T07:57:35;102311.16;;;3.24;50.75
818;BME280;391;51.052;6.954;2023-02-28T07:59:38;102302.66;;;3.04;49.11
818;BME280;391;51.052;6.954;2023-02-28T08:01:43;102332.03;;;3.16;49.50
818;BME280;391;51.052;6.954;2023-02-28T08:03:46;102337.94;;;3.26;48.87
818;BME280;391;51.052;6.954;2023-02-28T08:05:50;102344.81;;;3.25;48.30
818;BME280;391;51.052;6.954;2023-02-28T08:07:54;102345.66;;;3.36;48.70
818;BME280;391;51.052;6.954;2023-02-28T08:09:57;102343.63;;;3.32;48.26
818;BME280;391;51.052;6.954;2023-02-28T08:12:01;102342.72;;;3.31;47.92
818;BME280;391;51.052;6.954;2023-02-28T08:14:04;102349.81;;;3.24;47.99
818;BME280;391;51.052;6.954;2023-02-28T08:16:08;102347.75;;;3.30;47.67
818;BME280;391;51.052;6.954;2023-02-28T08:18:12;102344.66;;;3.34;47.33
818;BME280;391;51.052;6.954;2023-02-28T08:20:16;102341.44;;;3.26;47.45
818;BME280;391;51.052;6.954;2023-02-28T08:22:19;102346.31;;;3.23;47.10
818;BME280;391;51.052;6.954;2023-02-28T08:24:23;102343.09;;;3.26;47.39
818;BME280;391;51.052;6.954;2023-02-28T08:26:26;102349.06;;;3.25;46.78
818;BME280;391;51.052;6.954;2023-02-28T08:28:30;102348.53;;;3.18;46.02
818;BME280;391;51.052;6.954;2023-02-28T08:30:33;102354.47;;;3.17;46.40
818;BME280;391;51.052;6.954;2023-02-28T08:32:37;102349.16;;;3.16;46.05
818;BME280;391;51.052;6.954;2023-02-28T08:34:44;102355.22;;;3.27;45.81
818;BME280;391;51.052;6.954;2023-02-28T08:36:49;102357.94;;;3.28;44.94
818;BME280;391;51.052;6.954;2023-02-28T08:38:52;102351.22;;;3.20;43.66
818;BME280;391;51.052;6.954;2023-02-28T08:40:59;102354.22;;;3.25;44.77
818;BME280;391;51.052;6.954;2023-02-28T08:43:03;102354.81;;;3.32;44.04
818;BME280;391;51.052;6.954;2023-02-28T08:45:07;102352.50;;;3.35;43.08
818;BME280;391;51.052;6.954;2023-02-28T08:47:12;102356.50;;;3.42;43.38
818;BME280;391;51.052;6.954;2023-02-28T08:49:16;102355.38;;;3.38;43.26
818;BME280;391;51.052;6.954;2023-02-28T08:51:22;102358.31;;;3.43;43.47
818;BME280;391;51.052;6.954;2023-02-28T08:53:29;102355.22;;;3.47;42.91
818;BME280;391;51.052;6.954;2023-02-28T08:55:33;102354.47;;;3.38;42.05
818;BME280;391;51.052;6.954;2023-02-28T08:57:36;102358.69;;;3.47;42.96
818;BME280;391;51.052;6.954;2023-02-28T08:59:40;102369.53;;;3.53;41.92
818;BME280;391;51.052;6.954;2023-02-28T09:01:43;102361.53;;;3.50;42.30
818;BME280;391;51.052;6.954;2023-02-28T09:03:48;102356.97;;;3.68;42.60
818;BME280;391;51.052;6.954;2023-02-28T09:05:54;102353.13;;;3.63;41.59
818;BME280;391;51.052;6.954;2023-02-28T09:08:00;102359.31;;;3.65;42.10
818;BME280;391;51.052;6.954;2023-02-28T09:10:04;102361.63;;;3.72;41.80
818;BME280;391;51.052;6.954;2023-02-28T09:12:07;102358.53;;;3.66;41.39
818;BME280;391;51.052;6.954;2023-02-28T09:14:11;102357.84;;;3.79;40.81
818;BME280;391;51.052;6.954;2023-02-28T09:16:15;102357.72;;;3.77;40.49
818;BME280;391;51.052;6.954;2023-02-28T09:18:20;102350.63;;;3.74;40.59
818;BME280;391;51.052;6.954;2023-02-28T09:20:23;102354.16;;;3.65;40.58
818;BME280;391;51.052;6.954;2023-02-28T09:22:27;102345.63;;;3.66;40.23
818;BME280;391;51.052;6.954;2023-02-28T09:24:32;102348.22;;;3.66;40.78
818;BME280;391;51.052;6.954;2023-02-28T09:26:37;102235.91;;;3.17;40.76
818;BME280;391;51.052;6.954;2023-02-28T09:28:53;102348.25;;;3.98;40.87
818;BME280;391;51.052;6.954;2023-02-28T09:30:57;102346.16;;;4.04;41.07
818;BME280;391;51.052;6.954;2023-02-28T09:33:01;102341.53;;;4.00;40.32
818;BME280;391;51.052;6.954;2023-02-28T09:35:06;102340.25;;;4.05;40.75
818;BME280;391;51.052;6.954;2023-02-28T09:37:15;102341.06;;;4.15;41.01
818;BME280;391;51.052;6.954;2023-02-28T09:39:18;102313.28;;;4.01;40.54
818;BME280;391;51.052;6.954;2023-02-28T09:41:24;102334.34;;;4.28;40.81
818;BME280;391;51.052;6.954;2023-02-28T09:43:34;102352.03;;;4.23;40.76
818;BME280;391;51.052;6.954;2023-02-28T09:45:41;102348.66;;;4.24;40.01
818;BME280;391;51.052;6.954;2023-02-28T09:47:47;102345.72;;;4.19;39.54
818;BME280;391;51.052;6.954;2023-02-28T09:49:52;102302.72;;;3.98;40.62
818;BME280;391;51.052;6.954;2023-02-28T09:51:58;102340.38;;;4.28;40.76
818;BME280;391;51.052;6.954;2023-02-28T09:54:03;102355.72;;;4.37;40.20
818;BME280;391;51.052;6.954;2023-02-28T09:56:08;102344.66;;;4.49;39.70
818;BME280;391;51.052;6.954;2023-02-28T09:58:19;102338.72;;;4.72;39.93
818;BME280;391;51.052;6.954;2023-02-28T10:00:29;102349.03;;;4.94;39.40
818;BME280;391;51.052;6.954;2023-02-28T10:02:49;102350.88;;;5.18;39.08
818;BME280;391;51.052;6.954;2023-02-28T10:04:58;102303.28;;;4.93;38.77
818;BME280;391;51.052;6.954;2023-02-28T10:07:07;102354.72;;;5.23;39.40
818;BME280;391;51.052;6.954;2023-02-28T10:09:22;102351.69;;;5.17;40.78
818;BME280;391;51.052;6.954;2023-02-28T10:11:28;102342.34;;;5.19;39.66
818;BME280;391;51.052;6.954;2023-02-28T10:13:36;102340.81;;;5.32;39.26
818;BME280;391;51.052;6.954;2023-02-28T10:15:42;102334.19;;;5.48;39.08
818;BME280;391;51.052;6.954;2023-02-28T10:17:53;102301.66;;;5.40;38.71
818;BME280;391;51.052;6.954;2023-02-28T10:20:12;102298.91;;;5.48;38.17
818;BME280;391;51.052;6.954;2023-02-28T10:22:19;102323.72;;;5.81;38.33
818;BME280;391;51.052;6.954;2023-02-28T10:24:29;102320.75;;;5.87;37.94
818;BME280;391;51.052;6.954;2023-02-28T10:26:33;102324.44;;;6.02;37.87
818;BME280;391;51.052;6.954;2023-02-28T10:28:38;102334.00;;;6.14;37.87
818;BME280;391;51.052;6.954;2023-02-28T10:30:44;102327.44;;;6.31;37.84
818;BME280;391;51.052;6.954;2023-02-28T10:32:50;102327.31;;;6.41;37.78
818;BME280;391;51.052;6.954;2023-02-28T10:34:58;102302.69;;;6.11;36.02
818;BME280;391;51.052;6.954;2023-02-28T10:37:03;102312.97;;;5.98;36.86
818;BME280;391;51.052;6.954;2023-02-28T10:39:33;102330.50;;;5.91;36.46
818;BME280;391;51.052;6.954;2023-02-28T10:41:42;102327.34;;;6.06;37.12
818;BME280;391;51.052;6.954;2023-02-28T10:43:47;102328.38;;;6.45;37.12
818;BME280;391;51.052;6.954;2023-02-28T10:45:59;102324.38;;;6.73;36.27
818;BME280;391;51.052;6.954;2023-02-28T10:48:24;102322.28;;;6.80;35.85
818;BME280;391;51.052;6.954;2023-02-28T10:50:33;102325.69;;;6.79;36.04
818;BME280;391;51.052;6.954;2023-02-28T10:52:39;102321.34;;;6.67;35.48
818;BME280;391;51.052;6.954;2023-02-28T10:54:43;102322.19;;;6.79;35.71
818;BME280;391;51.052;6.954;2023-02-28T10:57:06;102324.19;;;6.83;35.63
818;BME280;391;51.052;6.954;2023-02-28T10:59:26;102312.94;;;6.82;35.75
818;BME280;391;51.052;6.954;2023-02-28T11:01:38;102318.28;;;6.97;35.74
818;BME280;391;51.052;6.954;2023-02-28T11:03:42;102320.66;;;6.94;35.58
818;BME280;391;51.052;6.954;2023-02-28T11:05:46;102314.31;;;6.77;36.09
818;BME280;391;51.052;6.954;2023-02-28T11:07:51;102309.44;;;7.07;36.04
818;BME280;391;51.052;6.954;2023-02-28T11:09:57;102304.13;;;7.43;35.76
818;BME280;391;51.052;6.954;2023-02-28T11:12:02;102302.72;;;7.48;35.45
818;BME280;391;51.052;6.954;2023-02-28T11:14:19;102282.97;;;7.37;35.34
818;BME280;391;51.052;6.954;2023-02-28T11:16:33;102297.03;;;7.67;35.55
818;BME280;391;51.052;6.954;2023-02-28T11:18:41;102304.31;;;7.85;34.90
818;BME280;391;51.052;6.954;2023-02-28T11:20:47;102305.78;;;7.29;34.52
818;BME280;391;51.052;6.954;2023-02-28T11:22:53;102303.75;;;7.12;35.02
818;BME280;391;51.052;6.954;2023-02-28T11:25:01;102304.03;;;7.04;35.19
818;BME280;391;51.052;6.954;2023-02-28T11:29:47;102291.41;;;6.59;36.01
818;BME280;391;51.052;6.954;2023-02-28T11:32:16;102293.22;;;6.60;36.23
818;BME280;391;51.052;6.954;2023-02-28T11:34:26;102299.44;;;7.00;35.90
818;BME280;391;51.052;6.954;2023-02-28T11:36:32;102267.22;;;7.09;35.62
818;BME280;391;51.052;6.954;2023-02-28T11:38:36;102302.63;;;7.47;35.57
818;BME280;391;51.052;6.954;2023-02-28T11:40:48;102308.28;;;7.41;35.09
818;BME280;391;51.052;6.954;2023-02-28T11:43:04;102298.22;;;7.32;35.39
818;BME280;391;51.052;6.954;2023-02-28T11:45:17;102304.38;;;7.34;35.13
818;BME280;391;51.052;6.954;2023-02-28T11:47:32;102294.50;;;7.29;35.60
818;BME280;391;51.052;6.954;2023-02-28T11:49:43;102298.84;;;7.81;35.70
818;BME280;391;51.052;6.954;2023-02-28T11:51:54;102296.63;;;8.13;34.81
818;BME280;391;51.052;6.954;2023-02-28T11:54:14;102295.34;;;7.80;34.64
818;BME280;391;51.052;6.954;2023-02-28T11:56:31;102292.09;;;8.11;34.73